Time;durP1;ratioP1;P1;durP2;ratioP2;P2;SDS_P1;SDS_P2;PMS_P1;PMS_P2;Temp;Humidity;BMP_temperature;BMP_pressure;BME280_temperature;BME280_humidity;BME280_pressure;Samples;Min_cycle;Max_cycle;Signal;HPM_P1;HPM_P2
2022/11/22 00:01:21;;;;;;;0.47;0.47;;;;;;;;;;4146251;28;20062;-43
2022/11/22 00:03:22;;;;;;;0.60;0.50;;;;;;;;;;4147481;28;20057;-43
2022/11/22 00:05:23;;;;;;;1.02;0.70;;;;;;;;;;4135082;28;20109;-44
2022/11/22 00:07:25;;;;;;;0.40;0.40;;;;;;;;;;4144348;28;20058;-42
2022/11/22 00:09:26;;;;;;;0.50;0.43;;;;;;;;;;4113517;28;20125;-43
2022/11/22 00:11:27;;;;;;;0.50;0.40;;;;;;;;;;4138763;28;20058;-44
2022/11/22 00:13:29;;;;;;;0.40;0.40;;;;;;;;;;4147437;28;20050;-43
2022/11/22 00:15:30;;;;;;;0.70;0.60;;;;;;;;;;4146797;28;20053;-44
2022/11/22 00:17:32;;;;;;;0.65;0.43;;;;;;;;;;4134346;28;20096;-42
2022/11/22 00:19:34;;;;;;;1.05;0.65;;;;;;;;;;4146673;28;20058;-44
2022/11/22 00:21:35;;;;;;;0.55;0.47;;;;;;;;;;4147474;28;20362;-44
2022/11/22 00:23:37;;;;;;;0.60;0.47;;;;;;;;;;4147099;28;20057;-44
2022/11/22 00:25:38;;;;;;;1.20;0.52;;;;;;;;;;4133484;28;20387;-44
2022/11/22 00:27:39;;;;;;;0.82;0.52;;;;;;;;;;4147112;28;20058;-46
2022/11/22 00:29:41;;;;;;;0.68;0.45;;;;;;;;;;4138259;28;20414;-44
2022/11/22 00:31:42;;;;;;;0.50;0.40;;;;;;;;;;4125467;28;20494;-46
2022/11/22 00:33:43;;;;;;;0.57;0.50;;;;;;;;;;4146971;28;20053;-43
2022/11/22 00:35:45;;;;;;;0.88;0.60;;;;;;;;;;4141848;28;20054;-45
2022/11/22 00:37:46;;;;;;;0.98;0.50;;;;;;;;;;4138665;28;20501;-45
2022/11/22 00:39:48;;;;;;;0.80;0.70;;;;;;;;;;4146786;28;20077;-47
2022/11/22 00:41:49;;;;;;;0.93;0.50;;;;;;;;;;4146661;28;20054;-45
2022/11/22 00:43:51;;;;;;;0.60;0.45;;;;;;;;;;4146701;28;20076;-44
2022/11/22 00:45:52;;;;;;;0.60;0.50;;;;;;;;;;4146649;28;20053;-44
2022/11/22 00:47:54;;;;;;;0.60;0.60;;;;;;;;;;4129464;28;20422;-46
2022/11/22 00:49:55;;;;;;;0.75;0.60;;;;;;;;;;4135950;28;20054;-46
2022/11/22 00:51:56;;;;;;;0.55;0.50;;;;;;;;;;4110418;28;20058;-44
2022/11/22 00:53:58;;;;;;;0.40;0.40;;;;;;;;;;4148938;28;20111;-46
2022/11/22 00:56:02;;;;;;;0.73;0.55;;;;;;;;;;4146773;28;20057;-48
2022/11/22 00:58:03;;;;;;;0.77;0.50;;;;;;;;;;4137111;28;20105;-45
2022/11/22 01:00:05;;;;;;;0.95;0.55;;;;;;;;;;4143330;28;20108;-43
2022/11/22 01:02:07;;;;;;;0.50;0.50;;;;;;;;;;4145451;28;20070;-45
2022/11/22 01:04:08;;;;;;;0.63;0.55;;;;;;;;;;4140749;28;20054;-45
2022/11/22 01:06:09;;;;;;;0.45;0.45;;;;;;;;;;4105549;28;20059;-44
2022/11/22 01:08:11;;;;;;;0.65;0.65;;;;;;;;;;4142638;28;20185;-46
2022/11/22 01:10:12;;;;;;;0.82;0.47;;;;;;;;;;4132790;28;20395;-45
2022/11/22 01:12:13;;;;;;;0.70;0.50;;;;;;;;;;4146986;28;20104;-44
2022/11/22 01:14:17;;;;;;;0.70;0.50;;;;;;;;;;4138415;28;20058;-45
2022/11/22 01:16:19;;;;;;;1.20;0.50;;;;;;;;;;4125602;28;20059;-44
2022/11/22 01:18:20;;;;;;;0.80;0.55;;;;;;;;;;4146495;28;20394;-45
2022/11/22 01:20:21;;;;;;;0.60;0.55;;;;;;;;;;4136736;28;20061;-45
2022/11/22 01:22:23;;;;;;;1.17;0.80;;;;;;;;;;4143471;28;20097;-46
2022/11/22 01:24:24;;;;;;;1.02;0.40;;;;;;;;;;4143209;28;20084;-44
2022/11/22 01:26:25;;;;;;;0.60;0.60;;;;;;;;;;4137225;28;20498;-46
2022/11/22 01:28:27;;;;;;;0.50;0.40;;;;;;;;;;4149087;28;20057;-47
2022/11/22 01:30:28;;;;;;;0.80;0.57;;;;;;;;;;4148870;28;20046;-45
2022/11/22 01:32:29;;;;;;;1.02;0.60;;;;;;;;;;4149867;28;20058;-45
2022/11/22 01:34:34;;;;;;;0.40;0.40;;;;;;;;;;4149352;28;20192;-43
2022/11/22 01:36:35;;;;;;;0.40;0.40;;;;;;;;;;4142484;28;20054;-48
2022/11/22 01:38:37;;;;;;;0.50;0.50;;;;;;;;;;4138363;28;20104;-45
2022/11/22 01:40:38;;;;;;;0.50;0.40;;;;;;;;;;4149650;28;20127;-46
2022/11/22 01:42:49;;;;;;;0.50;0.50;;;;;;;;;;4138873;28;20108;-46
2022/11/22 01:44:52;;;;;;;0.77;0.65;;;;;;;;;;4147351;28;20050;-45
2022/11/22 01:46:58;;;;;;;0.65;0.50;;;;;;;;;;4149388;28;20061;-44
2022/11/22 01:49:03;;;;;;;0.80;0.60;;;;;;;;;;4149503;28;20096;-44
2022/11/22 01:51:14;;;;;;;0.68;0.55;;;;;;;;;;4149091;28;20081;-44
2022/11/22 01:53:19;;;;;;;0.57;0.50;;;;;;;;;;4128134;28;20431;-48
2022/11/22 01:55:21;;;;;;;0.50;0.47;;;;;;;;;;4156299;28;20092;-44
2022/11/22 01:57:27;;;;;;;0.88;0.70;;;;;;;;;;4151109;28;20112;-46
2022/11/22 01:59:29;;;;;;;1.00;0.60;;;;;;;;;;4147548;28;20050;-46
2022/11/22 02:01:31;;;;;;;1.05;0.68;;;;;;;;;;4149203;28;20061;-42
2022/11/22 02:03:33;;;;;;;1.10;0.80;;;;;;;;;;4149321;28;20053;-44
2022/11/22 02:05:35;;;;;;;0.63;0.50;;;;;;;;;;4148797;28;20104;-43
2022/11/22 02:07:59;;;;;;;1.98;0.75;;;;;;;;;;4135756;28;20054;-45
2022/11/22 02:10:01;;;;;;;0.90;0.60;;;;;;;;;;4141443;28;20453;-44
2022/11/22 02:12:03;;;;;;;0.82;0.65;;;;;;;;;;4142234;28;20050;-44
2022/11/22 02:14:04;;;;;;;0.90;0.70;;;;;;;;;;4135084;28;20524;-44
2022/11/22 02:16:06;;;;;;;0.52;0.52;;;;;;;;;;4130439;28;20135;-44
2022/11/22 02:18:07;;;;;;;0.70;0.60;;;;;;;;;;4141182;28;20050;-42
2022/11/22 02:20:09;;;;;;;0.70;0.70;;;;;;;;;;4140633;28;20091;-47
2022/11/22 02:22:38;;;;;;;0.88;0.73;;;;;;;;;;4135835;28;20050;-43
2022/11/22 02:24:54;;;;;;;0.93;0.60;;;;;;;;;;4120150;28;20441;-43
2022/11/22 02:26:55;;;;;;;0.77;0.77;;;;;;;;;;4147546;28;20120;-44
2022/11/22 02:29:01;;;;;;;0.80;0.70;;;;;;;;;;4147623;28;20058;-46
2022/11/22 02:31:03;;;;;;;0.85;0.70;;;;;;;;;;4130473;28;20391;-46
2022/11/22 02:33:05;;;;;;;0.55;0.50;;;;;;;;;;4148091;28;20096;-46
2022/11/22 02:35:21;;;;;;;0.45;0.38;;;;;;;;;;4147429;28;20194;-42
2022/11/22 02:37:28;;;;;;;0.60;0.60;;;;;;;;;;4147642;28;20107;-46
2022/11/22 02:39:30;;;;;;;1.27;0.70;;;;;;;;;;4130385;28;20050;-43
2022/11/22 02:41:31;;;;;;;0.90;0.70;;;;;;;;;;4131666;28;20422;-44
2022/11/22 02:43:42;;;;;;;0.60;0.50;;;;;;;;;;4144035;28;20165;-46
2022/11/22 02:45:43;;;;;;;0.93;0.60;;;;;;;;;;4135019;28;20057;-44
2022/11/22 02:47:45;;;;;;;1.20;0.85;;;;;;;;;;4141384;28;20056;-49
2022/11/22 02:49:46;;;;;;;0.82;0.75;;;;;;;;;;4136834;28;20353;-45
2022/11/22 02:51:47;;;;;;;0.98;0.70;;;;;;;;;;4144291;28;20053;-47
2022/11/22 02:53:49;;;;;;;1.50;0.73;;;;;;;;;;4147623;28;20049;-43
2022/11/22 02:55:51;;;;;;;0.77;0.57;;;;;;;;;;4130264;28;20054;-46
2022/11/22 02:57:52;;;;;;;0.55;0.47;;;;;;;;;;4148034;28;20058;-45
2022/11/22 02:59:54;;;;;;;0.70;0.50;;;;;;;;;;4147538;28;20054;-45
2022/11/22 03:01:55;;;;;;;0.95;0.60;;;;;;;;;;4147238;28;20046;-43
2022/11/22 03:03:56;;;;;;;0.75;0.70;;;;;;;;;;4129733;28;20485;-44
2022/11/22 03:05:57;;;;;;;1.00;0.70;;;;;;;;;;4146571;28;20108;-47
2022/11/22 03:07:59;;;;;;;1.27;0.75;;;;;;;;;;4162124;28;20061;-43
2022/11/22 03:10:00;;;;;;;0.95;0.57;;;;;;;;;;4095461;28;1124516;-42
2022/11/22 03:12:02;;;;;;;0.60;0.50;;;;;;;;;;4144645;28;20050;-45
2022/11/22 03:14:03;;;;;;;0.70;0.60;;;;;;;;;;4138747;28;20050;-45
2022/11/22 03:16:04;;;;;;;0.90;0.70;;;;;;;;;;4148355;28;20049;-45
2022/11/22 03:18:05;;;;;;;1.00;0.63;;;;;;;;;;4118264;28;20054;-43
2022/11/22 03:20:07;;;;;;;0.70;0.70;;;;;;;;;;4147162;28;20473;-45
2022/11/22 03:22:08;;;;;;;0.60;0.40;;;;;;;;;;4148446;28;20049;-46
2022/11/22 03:24:10;;;;;;;0.52;0.52;;;;;;;;;;4148057;28;20181;-43
2022/11/22 03:26:12;;;;;;;0.70;0.65;;;;;;;;;;4136056;28;20050;-42
2022/11/22 03:28:13;;;;;;;0.80;0.65;;;;;;;;;;4144809;28;20108;-46
2022/11/22 03:30:16;;;;;;;0.60;0.60;;;;;;;;;;4136833;28;20054;-43
2022/11/22 03:32:17;;;;;;;0.93;0.70;;;;;;;;;;4147894;28;20061;-43
2022/11/22 03:34:19;;;;;;;0.68;0.68;;;;;;;;;;4147599;28;20103;-42
2022/11/22 03:36:22;;;;;;;0.70;0.65;;;;;;;;;;4147649;28;20467;-42
2022/11/22 03:38:23;;;;;;;1.00;0.80;;;;;;;;;;4162688;28;20053;-42
2022/11/22 03:40:27;;;;;;;0.98;0.70;;;;;;;;;;4147557;28;20049;-42
2022/11/22 03:42:29;;;;;;;0.65;0.55;;;;;;;;;;4148102;28;20096;-44
2022/11/22 03:44:30;;;;;;;0.63;0.60;;;;;;;;;;4134034;28;20128;-44
2022/11/22 03:46:32;;;;;;;0.85;0.68;;;;;;;;;;4144116;28;20335;-44
2022/11/22 03:48:33;;;;;;;1.10;0.70;;;;;;;;;;4138023;28;20053;-42
2022/11/22 03:50:34;;;;;;;0.60;0.60;;;;;;;;;;4137281;28;20108;-44
2022/11/22 03:52:35;;;;;;;0.60;0.60;;;;;;;;;;4144561;28;20127;-43
2022/11/22 03:54:37;;;;;;;0.90;0.80;;;;;;;;;;4134128;28;20113;-42
2022/11/22 03:56:38;;;;;;;0.93;0.70;;;;;;;;;;4147614;28;20516;-42
2022/11/22 03:58:39;;;;;;;0.60;0.60;;;;;;;;;;4147629;28;20054;-43
2022/11/22 04:00:41;;;;;;;0.88;0.70;;;;;;;;;;4135824;28;20099;-44
2022/11/22 04:02:42;;;;;;;0.65;0.60;;;;;;;;;;4145971;28;20441;-42
2022/11/22 04:04:44;;;;;;;0.77;0.60;;;;;;;;;;4146945;28;20050;-43
2022/11/22 04:06:45;;;;;;;0.68;0.57;;;;;;;;;;4147354;28;20060;-44
2022/11/22 04:08:46;;;;;;;1.08;0.80;;;;;;;;;;4151412;28;20057;-44
2022/11/22 04:10:49;;;;;;;0.70;0.55;;;;;;;;;;4130964;28;20486;-46
2022/11/22 04:12:50;;;;;;;1.00;0.70;;;;;;;;;;4143242;28;20058;-43
2022/11/22 04:15:06;;;;;;;1.10;0.75;;;;;;;;;;4138255;28;20054;-43
2022/11/22 04:17:11;;;;;;;0.73;0.68;;;;;;;;;;4147338;28;20058;-43
2022/11/22 04:19:14;;;;;;;0.90;0.75;;;;;;;;;;4144352;28;20042;-42
2022/11/22 04:21:34;;;;;;;0.68;0.63;;;;;;;;;;4136326;28;20057;-43
2022/11/22 04:23:35;;;;;;;0.88;0.80;;;;;;;;;;4129861;28;20058;-43
2022/11/22 04:25:39;;;;;;;1.33;0.90;;;;;;;;;;4146672;28;20062;-43
2022/11/22 04:27:40;;;;;;;0.70;0.68;;;;;;;;;;4129922;28;20054;-44
2022/11/22 04:29:41;;;;;;;0.80;0.70;;;;;;;;;;4146712;28;20100;-44
2022/11/22 04:34:03;;;;;;;0.80;0.80;;;;;;;;;;4134046;28;20053;-43
2022/11/22 04:36:04;;;;;;;0.80;0.68;;;;;;;;;;4140583;28;20062;-44
2022/11/22 04:38:05;;;;;;;0.88;0.70;;;;;;;;;;4139780;28;20420;-44
2022/11/22 04:40:08;;;;;;;1.02;0.82;;;;;;;;;;4146921;28;20054;-42
2022/11/22 04:44:41;;;;;;;0.90;0.70;;;;;;;;;;4139616;28;20054;-43
2022/11/22 04:46:42;;;;;;;0.70;0.60;;;;;;;;;;4143123;28;20559;-43
2022/11/22 04:48:44;;;;;;;1.00;0.80;;;;;;;;;;4128765;28;20054;-43
2022/11/22 04:53:05;;;;;;;0.70;0.60;;;;;;;;;;4124066;28;20498;-43
2022/11/22 04:55:06;;;;;;;0.75;0.70;;;;;;;;;;4126033;28;20128;-47
2022/11/22 04:57:07;;;;;;;0.80;0.75;;;;;;;;;;4145486;28;20119;-44
2022/11/22 04:59:09;;;;;;;0.90;0.75;;;;;;;;;;4140176;28;20105;-42
2022/11/22 05:01:10;;;;;;;0.77;0.60;;;;;;;;;;4140312;28;20057;-44
2022/11/22 05:03:11;;;;;;;0.77;0.60;;;;;;;;;;4145591;28;20053;-44
2022/11/22 05:05:13;;;;;;;0.93;0.80;;;;;;;;;;4145968;28;20058;-45
2022/11/22 05:07:15;;;;;;;1.15;0.95;;;;;;;;;;4146739;28;20057;-43
2022/11/22 05:09:16;;;;;;;0.52;0.50;;;;;;;;;;4146234;28;20051;-42
2022/11/22 05:11:18;;;;;;;0.93;0.80;;;;;;;;;;4146759;28;20099;-44
2022/11/22 05:13:32;;;;;;;1.48;0.90;;;;;;;;;;4131319;28;20101;-44
2022/11/22 05:15:33;;;;;;;0.80;0.70;;;;;;;;;;4145460;28;20472;-43
2022/11/22 05:17:34;;;;;;;0.55;0.55;;;;;;;;;;4140079;28;20061;-42
2022/11/22 05:19:36;;;;;;;0.95;0.70;;;;;;;;;;4146156;28;20104;-43
2022/11/22 05:21:37;;;;;;;0.80;0.77;;;;;;;;;;4146322;28;20054;-42
2022/11/22 05:23:53;;;;;;;0.57;0.57;;;;;;;;;;4146758;28;20050;-45
2022/11/22 05:25:54;;;;;;;0.85;0.70;;;;;;;;;;4146738;28;20046;-42
2022/11/22 05:27:55;;;;;;;1.27;0.90;;;;;;;;;;4145052;28;20061;-42
2022/11/22 05:29:56;;;;;;;0.73;0.70;;;;;;;;;;4146624;28;20547;-42
2022/11/22 05:31:57;;;;;;;0.82;0.60;;;;;;;;;;4146559;28;20103;-48
2022/11/22 05:33:59;;;;;;;0.90;0.73;;;;;;;;;;4146554;28;20398;-45
2022/11/22 05:36:00;;;;;;;0.70;0.70;;;;;;;;;;4144790;28;20080;-43
2022/11/22 05:38:02;;;;;;;0.98;0.75;;;;;;;;;;4146148;28;20057;-44
2022/11/22 05:40:04;;;;;;;0.60;0.60;;;;;;;;;;4146325;28;20061;-46
2022/11/22 05:42:05;;;;;;;1.08;0.90;;;;;;;;;;4146540;28;20112;-47
2022/11/22 05:44:06;;;;;;;1.23;0.80;;;;;;;;;;4134877;28;20058;-43
2022/11/22 05:46:11;;;;;;;0.95;0.70;;;;;;;;;;4144558;28;20057;-44
2022/11/22 05:48:13;;;;;;;1.15;0.75;;;;;;;;;;4144473;28;20065;-48
2022/11/22 05:50:15;;;;;;;0.95;0.70;;;;;;;;;;4137621;28;20050;-47
2022/11/22 05:52:28;;;;;;;1.17;0.98;;;;;;;;;;4142989;28;20061;-46
2022/11/22 05:54:30;;;;;;;1.95;1.10;;;;;;;;;;4145898;28;20163;-43
2022/11/22 05:56:31;;;;;;;1.30;1.00;;;;;;;;;;4145784;28;20075;-44
2022/11/22 05:58:33;;;;;;;1.52;0.90;;;;;;;;;;4145965;28;20050;-43
2022/11/22 06:00:34;;;;;;;1.45;0.98;;;;;;;;;;4141388;28;20058;-44
2022/11/22 06:02:36;;;;;;;1.67;1.00;;;;;;;;;;4143922;28;20062;-43
2022/11/22 06:04:42;;;;;;;1.70;1.23;;;;;;;;;;4140413;28;20058;-46
2022/11/22 06:06:46;;;;;;;1.42;1.17;;;;;;;;;;4145083;28;20058;-43
2022/11/22 06:08:52;;;;;;;1.92;0.90;;;;;;;;;;4147243;28;20552;-44
2022/11/22 06:10:58;;;;;;;1.38;1.20;;;;;;;;;;4128196;28;20449;-43
2022/11/22 06:13:03;;;;;;;1.38;1.15;;;;;;;;;;4130295;28;20418;-45
2022/11/22 06:15:06;;;;;;;1.25;1.13;;;;;;;;;;4147121;28;20050;-44
2022/11/22 06:17:12;;;;;;;1.23;1.05;;;;;;;;;;4140984;28;20057;-42
2022/11/22 06:19:16;;;;;;;1.20;1.02;;;;;;;;;;4143874;28;20106;-42
2022/11/22 06:21:22;;;;;;;1.55;1.17;;;;;;;;;;4145997;28;20433;-43
2022/11/22 06:23:26;;;;;;;1.65;1.20;;;;;;;;;;4143333;28;20449;-45
2022/11/22 06:25:29;;;;;;;1.05;0.95;;;;;;;;;;4125411;28;20054;-44
2022/11/22 06:27:32;;;;;;;1.60;1.13;;;;;;;;;;4140107;28;20058;-45
2022/11/22 06:29:35;;;;;;;1.70;1.20;;;;;;;;;;4127213;28;20198;-44
2022/11/22 06:31:38;;;;;;;1.30;1.10;;;;;;;;;;4144158;28;20480;-44
2022/11/22 06:33:40;;;;;;;1.17;1.00;;;;;;;;;;4135686;28;20058;-44
2022/11/22 06:35:42;;;;;;;1.23;1.10;;;;;;;;;;4142206;28;20096;-43
2022/11/22 06:37:43;;;;;;;1.73;1.38;;;;;;;;;;4140098;28;20049;-44
2022/11/22 06:39:45;;;;;;;1.30;1.20;;;;;;;;;;4145936;28;20441;-43
2022/11/22 06:41:46;;;;;;;1.23;1.13;;;;;;;;;;4127790;28;20201;-44
2022/11/22 06:43:48;;;;;;;1.45;1.10;;;;;;;;;;4146570;28;20160;-43
2022/11/22 06:45:54;;;;;;;1.33;1.23;;;;;;;;;;4144322;28;20409;-44
2022/11/22 06:47:57;;;;;;;2.45;1.08;;;;;;;;;;4140227;28;20065;-43
2022/11/22 06:49:58;;;;;;;1.92;1.52;;;;;;;;;;4140425;28;20057;-43
2022/11/22 06:51:59;;;;;;;1.88;1.17;;;;;;;;;;4138363;28;20119;-48
2022/11/22 06:54:00;;;;;;;1.77;1.08;;;;;;;;;;4143213;28;20100;-46
2022/11/22 06:56:05;;;;;;;1.27;1.00;;;;;;;;;;4122586;28;20054;-43
2022/11/22 06:58:06;;;;;;;1.38;1.23;;;;;;;;;;4122563;28;20088;-44
2022/11/22 07:00:08;;;;;;;1.98;1.33;;;;;;;;;;4136446;28;20547;-44
2022/11/22 07:02:11;;;;;;;1.48;1.20;;;;;;;;;;4136981;28;20054;-43
2022/11/22 07:04:12;;;;;;;1.58;1.20;;;;;;;;;;4140687;28;20057;-44
2022/11/22 07:06:14;;;;;;;1.50;1.25;;;;;;;;;;4143168;28;20096;-42
2022/11/22 07:08:15;;;;;;;1.42;1.30;;;;;;;;;;4144226;28;20057;-43
2022/11/22 07:10:16;;;;;;;1.80;1.50;;;;;;;;;;4138011;28;20045;-44
2022/11/22 07:12:18;;;;;;;1.83;1.10;;;;;;;;;;4143778;28;20160;-44
2022/11/22 07:14:19;;;;;;;1.90;1.17;;;;;;;;;;4123646;28;20591;-44
2022/11/22 07:16:20;;;;;;;1.48;1.13;;;;;;;;;;4143526;28;20088;-45
2022/11/22 07:18:23;;;;;;;2.33;1.48;;;;;;;;;;4123931;28;20527;-43
2022/11/22 07:20:24;;;;;;;1.60;1.50;;;;;;;;;;4140519;28;20433;-44
2022/11/22 07:22:25;;;;;;;1.70;1.55;;;;;;;;;;4139120;28;20100;-44
2022/11/22 07:24:27;;;;;;;1.67;1.52;;;;;;;;;;4139923;28;20058;-45
2022/11/22 07:26:28;;;;;;;1.83;1.60;;;;;;;;;;4152506;28;20050;-44
2022/11/22 07:28:30;;;;;;;1.38;1.23;;;;;;;;;;4145324;28;20516;-46
2022/11/22 07:30:31;;;;;;;1.60;1.50;;;;;;;;;;4148987;28;20124;-45
2022/11/22 07:32:32;;;;;;;1.65;1.50;;;;;;;;;;4149168;28;20046;-45
2022/11/22 07:34:33;;;;;;;2.13;1.15;;;;;;;;;;4140517;28;20064;-45
2022/11/22 07:36:34;;;;;;;1.80;1.40;;;;;;;;;;4146271;28;20516;-44
2022/11/22 07:38:36;;;;;;;1.67;1.58;;;;;;;;;;4151856;28;20058;-45
2022/11/22 07:40:38;;;;;;;1.58;1.33;;;;;;;;;;4139380;28;20441;-47
2022/11/22 07:42:40;;;;;;;1.33;1.23;;;;;;;;;;4116569;28;20120;-45
2022/11/22 07:44:41;;;;;;;1.55;1.30;;;;;;;;;;4142121;28;21584;-44
2022/11/22 07:46:43;;;;;;;1.67;1.48;;;;;;;;;;4130169;28;20399;-47
2022/11/22 07:48:44;;;;;;;1.58;1.48;;;;;;;;;;4129606;28;20054;-47
2022/11/22 07:50:45;;;;;;;2.55;1.70;;;;;;;;;;4143606;28;20061;-43
2022/11/22 07:52:54;;;;;;;1.70;1.42;;;;;;;;;;4139392;28;20115;-44
2022/11/22 07:54:55;;;;;;;1.83;1.60;;;;;;;;;;4146273;28;20107;-45
2022/11/22 07:56:57;;;;;;;1.67;1.42;;;;;;;;;;4143529;28;20059;-47
2022/11/22 07:58:58;;;;;;;2.28;1.80;;;;;;;;;;4130190;28;20058;-47
2022/11/22 08:01:13;;;;;;;2.00;1.55;;;;;;;;;;4141232;28;20077;-46
2022/11/22 08:03:15;;;;;;;1.80;1.50;;;;;;;;;;4119483;28;20062;-45
2022/11/22 08:05:17;;;;;;;3.75;1.52;;;;;;;;;;4139764;28;20057;-43
2022/11/22 08:07:18;;;;;;;2.08;1.65;;;;;;;;;;4114123;28;20062;-46
2022/11/22 08:09:19;;;;;;;1.95;1.48;;;;;;;;;;4124887;28;20058;-45
2022/11/22 08:11:21;;;;;;;1.60;1.50;;;;;;;;;;4123067;28;20128;-44
2022/11/22 08:13:23;;;;;;;1.88;1.60;;;;;;;;;;4111869;28;20058;-43
2022/11/22 08:15:24;;;;;;;3.65;1.80;;;;;;;;;;4101892;28;20082;-47
2022/11/22 08:17:25;;;;;;;1.58;1.38;;;;;;;;;;4112017;28;20059;-43
2022/11/22 08:19:27;;;;;;;2.45;2.25;;;;;;;;;;4107006;28;20051;-44
2022/11/22 08:21:28;;;;;;;2.38;1.60;;;;;;;;;;4115193;28;20113;-44
2022/11/22 08:23:30;;;;;;;2.45;1.60;;;;;;;;;;4093665;28;20058;-43
2022/11/22 08:25:32;;;;;;;2.17;1.70;;;;;;;;;;4106361;28;20388;-48
2022/11/22 08:27:33;;;;;;;1.60;1.50;;;;;;;;;;4104970;28;20050;-45
2022/11/22 08:29:34;;;;;;;2.10;1.77;;;;;;;;;;4102880;28;20046;-45
2022/11/22 08:31:37;;;;;;;2.17;1.70;;;;;;;;;;4106646;28;20062;-43
2022/11/22 08:33:39;;;;;;;1.52;1.38;;;;;;;;;;4108182;28;20495;-43
2022/11/22 08:35:40;;;;;;;1.70;1.50;;;;;;;;;;4102911;28;20097;-43
2022/11/22 08:37:41;;;;;;;2.47;2.00;;;;;;;;;;4098721;28;20105;-44
2022/11/22 08:39:43;;;;;;;2.22;1.60;;;;;;;;;;4107641;28;21954;-45
2022/11/22 08:41:44;;;;;;;1.85;1.52;;;;;;;;;;4092974;28;20105;-43
2022/11/22 08:43:48;;;;;;;1.95;1.70;;;;;;;;;;4109773;28;20062;-42
2022/11/22 08:45:55;;;;;;;2.83;1.75;;;;;;;;;;4102965;28;20104;-43
2022/11/22 08:47:57;;;;;;;1.80;1.60;;;;;;;;;;4110572;28;20053;-45
2022/11/22 08:49:58;;;;;;;1.95;1.73;;;;;;;;;;4111969;28;20055;-46
2022/11/22 08:52:00;;;;;;;1.67;1.58;;;;;;;;;;4111643;28;20054;-44
2022/11/22 08:54:01;;;;;;;1.77;1.50;;;;;;;;;;4105858;28;20426;-43
2022/11/22 08:56:04;;;;;;;3.30;1.73;;;;;;;;;;4111492;28;20185;-44
2022/11/22 08:58:05;;;;;;;1.70;1.60;;;;;;;;;;4092990;28;20054;-45
2022/11/22 09:00:07;;;;;;;1.88;1.67;;;;;;;;;;4107470;28;20414;-42
2022/11/22 09:02:09;;;;;;;2.83;1.95;;;;;;;;;;4091481;28;20090;-42
2022/11/22 09:04:11;;;;;;;2.45;1.73;;;;;;;;;;4101481;28;20062;-41
2022/11/22 09:06:17;;;;;;;1.70;1.60;;;;;;;;;;4107183;28;20517;-42
2022/11/22 09:08:19;;;;;;;2.92;1.67;;;;;;;;;;4108345;28;20106;-41
2022/11/22 09:10:20;;;;;;;2.67;1.77;;;;;;;;;;4111060;28;20581;-44
2022/11/22 09:12:21;;;;;;;2.33;1.98;;;;;;;;;;4127221;28;20065;-44
2022/11/22 09:14:22;;;;;;;2.00;1.80;;;;;;;;;;4122542;28;20788;-43
2022/11/22 09:16:24;;;;;;;2.35;1.85;;;;;;;;;;4121595;28;20120;-42
2022/11/22 09:18:25;;;;;;;2.97;2.30;;;;;;;;;;4130738;28;20062;-47
2022/11/22 09:20:27;;;;;;;2.63;1.80;;;;;;;;;;4110639;28;20054;-45
2022/11/22 09:22:28;;;;;;;1.77;1.55;;;;;;;;;;4118596;28;20129;-43
2022/11/22 09:24:29;;;;;;;2.20;1.92;;;;;;;;;;4105468;28;20557;-42
2022/11/22 09:26:31;;;;;;;1.70;1.45;;;;;;;;;;4110511;28;20062;-46
2022/11/22 09:28:33;;;;;;;3.53;1.70;;;;;;;;;;4119636;28;20069;-43
2022/11/22 09:30:35;;;;;;;2.10;1.77;;;;;;;;;;4114836;28;20057;-43
2022/11/22 09:32:36;;;;;;;2.33;1.90;;;;;;;;;;4127159;28;20061;-41
2022/11/22 09:34:37;;;;;;;2.13;1.70;;;;;;;;;;4098244;28;20160;-41
2022/11/22 09:36:39;;;;;;;2.35;1.90;;;;;;;;;;4124675;28;20579;-45
2022/11/22 09:38:40;;;;;;;2.60;2.15;;;;;;;;;;4119242;28;20055;-44
2022/11/22 09:40:46;;;;;;;2.10;1.90;;;;;;;;;;4117096;28;20053;-43
2022/11/22 09:43:09;;;;;;;2.30;1.80;;;;;;;;;;4125493;28;20130;-44
2022/11/22 09:45:28;;;;;;;2.05;1.85;;;;;;;;;;4141102;28;20053;-41
2022/11/22 09:48:01;;;;;;;2.63;2.17;;;;;;;;;;4133451;28;20779;-42
2022/11/22 09:50:45;;;;;;;2.67;1.83;;;;;;;;;;4124674;28;20053;-43
2022/11/22 09:52:55;;;;;;;2.45;1.90;;;;;;;;;;4088261;28;20471;-42
2022/11/22 09:55:04;;;;;;;1.95;1.77;;;;;;;;;;4130207;28;20493;-42
2022/11/22 09:57:12;;;;;;;1.60;1.50;;;;;;;;;;4104004;28;20216;-41
2022/11/22 09:59:18;;;;;;;2.65;2.00;;;;;;;;;;4121607;28;20053;-43
2022/11/22 10:01:37;;;;;;;2.72;1.90;;;;;;;;;;4123331;28;20070;-42
2022/11/22 10:03:50;;;;;;;2.92;2.42;;;;;;;;;;4132337;28;20065;-44
2022/11/22 10:05:53;;;;;;;2.20;1.92;;;;;;;;;;4125954;28;20054;-41
2022/11/22 10:08:00;;;;;;;1.70;1.60;;;;;;;;;;4120670;28;20046;-42
2022/11/22 10:10:10;;;;;;;4.25;1.95;;;;;;;;;;4132128;28;20085;-42
2022/11/22 10:12:19;;;;;;;3.35;2.20;;;;;;;;;;4123454;28;20058;-41
2022/11/22 10:14:52;;;;;;;2.95;1.80;;;;;;;;;;4107406;28;20094;-41
2022/11/22 10:17:06;;;;;;;2.00;1.80;;;;;;;;;;4118599;28;20058;-44
2022/11/22 10:19:14;;;;;;;1.90;1.60;;;;;;;;;;4103752;28;20070;-42
2022/11/22 10:21:18;;;;;;;2.63;2.30;;;;;;;;;;4120841;28;20061;-43
2022/11/22 10:23:24;;;;;;;2.40;2.00;;;;;;;;;;4103392;28;20490;-41
2022/11/22 10:25:40;;;;;;;2.08;1.80;;;;;;;;;;4125904;28;20057;-40
2022/11/22 10:27:43;;;;;;;1.88;1.60;;;;;;;;;;4147697;28;20693;-48
2022/11/22 10:29:50;;;;;;;1.95;1.60;;;;;;;;;;4124098;28;20054;-46
2022/11/22 10:31:53;;;;;;;1.80;1.50;;;;;;;;;;4113548;28;20050;-45
2022/11/22 10:34:16;;;;;;;2.08;1.70;;;;;;;;;;4115399;28;20612;-43
2022/11/22 10:36:36;;;;;;;2.72;2.00;;;;;;;;;;4125301;28;20085;-42
2022/11/22 10:38:40;;;;;;;2.13;1.92;;;;;;;;;;4121602;28;20460;-43
2022/11/22 10:40:46;;;;;;;3.80;1.77;;;;;;;;;;4117449;28;20204;-43
2022/11/22 10:42:56;;;;;;;2.17;1.60;;;;;;;;;;4123250;28;20062;-43
2022/11/22 10:45:04;;;;;;;2.58;1.85;;;;;;;;;;4121452;28;20175;-42
2022/11/22 10:47:07;;;;;;;2.10;1.77;;;;;;;;;;4114214;28;20054;-43
2022/11/22 10:49:15;;;;;;;2.95;1.70;;;;;;;;;;4123014;28;20605;-41
2022/11/22 10:51:22;;;;;;;2.25;1.90;;;;;;;;;;4120116;28;20454;-42
2022/11/22 10:53:48;;;;;;;2.17;1.90;;;;;;;;;;4123194;28;20195;-44
2022/11/22 10:55:52;;;;;;;2.10;1.90;;;;;;;;;;4120495;28;20112;-43
2022/11/22 10:58:25;;;;;;;2.55;1.88;;;;;;;;;;4122082;28;20543;-42
2022/11/22 11:00:28;;;;;;;1.48;1.38;;;;;;;;;;4105050;28;20410;-43
2022/11/22 11:02:48;;;;;;;2.25;1.92;;;;;;;;;;4136248;28;20057;-44
2022/11/22 11:04:50;;;;;;;1.98;1.70;;;;;;;;;;4104644;28;20054;-42
2022/11/22 11:06:55;;;;;;;3.10;2.00;;;;;;;;;;4113726;28;20054;-41
2022/11/22 11:09:24;;;;;;;2.83;1.98;;;;;;;;;;4113199;28;20172;-45
2022/11/22 11:11:26;;;;;;;4.97;2.08;;;;;;;;;;4103236;28;20132;-43
2022/11/22 11:13:33;;;;;;;1.83;1.40;;;;;;;;;;4114409;28;20165;-42
2022/11/22 11:15:38;;;;;;;1.95;1.67;;;;;;;;;;4098918;28;20774;-41
2022/11/22 11:17:41;;;;;;;3.20;1.83;;;;;;;;;;4088264;28;20051;-41
2022/11/22 11:19:44;;;;;;;1.75;1.60;;;;;;;;;;4109887;28;20073;-43
2022/11/22 11:21:54;;;;;;;1.95;1.65;;;;;;;;;;4116708;28;20057;-41
2022/11/22 11:23:55;;;;;;;3.05;1.75;;;;;;;;;;4106118;28;20061;-42
2022/11/22 11:26:14;;;;;;;2.03;1.67;;;;;;;;;;4131600;28;20104;-42
2022/11/22 11:28:19;;;;;;;2.42;2.08;;;;;;;;;;4125173;28;20049;-41
2022/11/22 11:30:21;;;;;;;2.10;1.83;;;;;;;;;;4107131;28;20054;-43
2022/11/22 11:32:22;;;;;;;2.22;1.67;;;;;;;;;;4103317;28;20075;-41
2022/11/22 11:34:26;;;;;;;2.60;1.40;;;;;;;;;;4111943;28;20068;-42
2022/11/22 11:36:27;;;;;;;2.03;1.73;;;;;;;;;;4108357;28;20054;-41
2022/11/22 11:38:30;;;;;;;1.67;1.58;;;;;;;;;;4123132;28;20129;-43
2022/11/22 11:40:31;;;;;;;3.00;1.80;;;;;;;;;;4114312;28;20054;-42
2022/11/22 11:42:34;;;;;;;3.38;1.63;;;;;;;;;;4116511;28;20164;-41
2022/11/22 11:44:36;;;;;;;2.20;1.77;;;;;;;;;;4118067;28;20149;-42
2022/11/22 11:46:40;;;;;;;1.73;1.58;;;;;;;;;;4114679;28;20101;-43
2022/11/22 11:48:42;;;;;;;2.28;2.03;;;;;;;;;;4114792;28;20058;-42
2022/11/22 11:50:44;;;;;;;1.88;1.58;;;;;;;;;;4112202;28;20105;-42
2022/11/22 11:52:50;;;;;;;1.60;1.50;;;;;;;;;;4093911;28;20059;-45
2022/11/22 11:54:53;;;;;;;2.63;2.08;;;;;;;;;;4101681;28;20144;-41
2022/11/22 11:56:59;;;;;;;2.05;1.85;;;;;;;;;;4090256;28;20129;-42
2022/11/22 11:59:06;;;;;;;3.05;1.95;;;;;;;;;;4087652;28;20589;-43
2022/11/22 12:01:10;;;;;;;2.22;1.90;;;;;;;;;;4107879;28;20051;-41
2022/11/22 12:03:15;;;;;;;1.83;1.52;;;;;;;;;;4102957;28;20054;-43
2022/11/22 12:05:16;;;;;;;2.92;1.95;;;;;;;;;;4097889;28;20528;-44
2022/11/22 12:07:26;;;;;;;2.28;1.98;;;;;;;;;;4111138;28;20065;-42
2022/11/22 12:09:33;;;;;;;2.50;2.07;;;;;;;;;;4091694;28;20063;-44
2022/11/22 12:11:45;;;;;;;3.25;1.95;;;;;;;;;;4104277;28;20062;-44
2022/11/22 12:13:52;;;;;;;3.35;1.90;;;;;;;;;;4100814;28;20058;-45
2022/11/22 12:16:18;;;;;;;2.45;1.88;;;;;;;;;;4102932;28;20065;-42
2022/11/22 12:18:37;;;;;;;2.08;1.67;;;;;;;;;;4100355;28;20055;-50
2022/11/22 12:20:45;;;;;;;1.67;1.40;;;;;;;;;;4116031;28;20170;-42
2022/11/22 12:23:08;;;;;;;1.95;1.50;;;;;;;;;;4089737;28;20062;-42
2022/11/22 12:25:27;;;;;;;3.15;1.80;;;;;;;;;;4109686;28;20528;-42
2022/11/22 12:27:29;;;;;;;3.80;1.80;;;;;;;;;;4107808;28;20065;-42
2022/11/22 12:29:33;;;;;;;1.98;1.65;;;;;;;;;;4104492;28;20518;-42
2022/11/22 12:31:56;;;;;;;1.80;1.65;;;;;;;;;;4105321;28;20168;-43